createdAt,value
2022-12-08T00:00:24.608Z,99869.78
2022-12-08T00:03:13.377Z,99872.88
2022-12-08T00:06:21.363Z,99858.03
2022-12-08T00:09:23.550Z,99861.94
2022-12-08T00:12:13.480Z,99864.88
2022-12-08T00:15:02.302Z,99853.22
2022-12-08T00:17:52.455Z,99856.97
2022-12-08T00:20:40.957Z,99851.84
2022-12-08T00:23:29.625Z,99813.25
2022-12-08T00:26:18.110Z,99842.81
2022-12-08T00:29:06.977Z,99852.13
2022-12-08T00:31:55.565Z,99838.09
2022-12-08T00:34:45.497Z,99835.59
2022-12-08T00:37:33.984Z,99832.22
2022-12-08T00:40:22.456Z,99829.34
2022-12-08T00:43:10.927Z,99815.69
2022-12-08T00:45:59.523Z,99812.47
2022-12-08T00:48:48.032Z,99809.81
2022-12-08T00:51:38.365Z,99812.56
2022-12-08T00:54:26.831Z,99792.50
2022-12-08T00:57:15.318Z,99793.94
2022-12-08T01:00:04.589Z,99795.91
2022-12-08T01:02:53.232Z,99798.75
2022-12-08T01:05:41.690Z,99792.22
2022-12-08T01:08:31.915Z,99779.81
2022-12-08T01:11:20.941Z,99788.63
2022-12-08T01:14:09.426Z,99744.22
2022-12-08T01:16:57.937Z,99785.31
2022-12-08T01:19:46.450Z,99791.41
2022-12-08T01:22:35.792Z,99793.09
2022-12-08T01:25:25.676Z,99795.75
2022-12-08T01:28:14.205Z,99795.78
2022-12-08T01:31:03.150Z,99792.69
2022-12-08T01:33:51.775Z,99800.84
2022-12-08T01:36:40.302Z,99803.50
2022-12-08T01:39:28.734Z,99784.31
2022-12-08T01:42:24.269Z,99758.88
2022-12-08T01:45:15.611Z,99807.56
2022-12-08T01:48:06.281Z,99805.97
2022-12-08T01:50:55.328Z,99800.97
2022-12-08T01:53:43.944Z,99829.69
2022-12-08T01:56:35.375Z,99798.38
2022-12-08T01:59:25.661Z,99796.13
2022-12-08T02:02:14.214Z,99806.69
2022-12-08T02:05:03.296Z,99795.44
2022-12-08T02:07:52.961Z,99792.28
2022-12-08T02:10:43.487Z,99789.78
2022-12-08T02:13:32.723Z,99768.88
2022-12-08T02:16:34.187Z,99764.19
2022-12-08T02:19:37.905Z,99783.75
2022-12-08T02:22:30.775Z,99775.91
2022-12-08T02:25:26.044Z,99772.44
2022-12-08T02:28:39.328Z,99768.84
2022-12-08T02:31:36.235Z,99740.75
2022-12-08T02:34:30.059Z,99763.25
2022-12-08T02:37:21.016Z,99757.72
2022-12-08T02:40:14.359Z,99761.25
2022-12-08T02:43:07.077Z,99762.94
2022-12-08T02:45:59.927Z,99758.13
2022-12-08T02:48:48.939Z,99752.59
2022-12-08T02:51:38.769Z,99741.38
2022-12-08T02:54:27.196Z,99747.41
2022-12-08T02:57:27.071Z,99748.47
2022-12-08T03:00:17.646Z,99742.28
2022-12-08T03:03:11.308Z,99729.22
2022-12-08T03:06:06.794Z,99727.56
2022-12-08T03:09:00.301Z,99724.31
2022-12-08T03:11:52.240Z,99718.38
2022-12-08T03:14:42.010Z,99715.47
2022-12-08T03:17:32.488Z,99721.06
2022-12-08T03:20:23.517Z,99721.38
2022-12-08T03:23:14.393Z,99705.41
2022-12-08T03:26:09.727Z,99708.44
2022-12-08T03:28:58.735Z,99693.59
2022-12-08T03:31:51.304Z,99711.88
2022-12-08T03:34:41.515Z,99700.66
2022-12-08T03:37:30.069Z,99702.59
2022-12-08T03:40:21.558Z,99702.09
2022-12-08T03:43:11.478Z,99704.44
2022-12-08T03:46:00.015Z,99695.84
2022-12-08T03:48:48.522Z,99622.97
2022-12-08T03:51:37.089Z,99699.75
2022-12-08T03:54:25.567Z,99693.34
2022-12-08T03:57:14.245Z,99679.97
2022-12-08T04:00:04.902Z,99690.44
2022-12-08T04:02:53.675Z,99691.16
2022-12-08T04:05:42.202Z,99671.19
2022-12-08T04:08:30.679Z,99676.97
2022-12-08T04:11:19.785Z,99672.69
2022-12-08T04:14:08.269Z,99680.47
2022-12-08T04:16:58.123Z,99682.78
2022-12-08T04:19:47.922Z,99679.13
2022-12-08T04:22:36.422Z,99670.47
2022-12-08T04:25:25.127Z,99663.47
2022-12-08T04:28:13.933Z,99667.97
2022-12-08T04:31:03.474Z,99640.31
2022-12-08T04:33:53.330Z,99655.44
2022-12-08T04:36:41.812Z,99658.94
2022-12-08T04:39:30.256Z,99668.28
2022-12-08T04:42:18.657Z,99666.09
2022-12-08T04:45:07.990Z,99630.09
2022-12-08T04:47:56.433Z,99654.94
2022-12-08T04:50:46.923Z,99628.91
2022-12-08T04:53:35.429Z,99654.78
2022-12-08T04:56:23.891Z,99662.00
2022-12-08T04:59:12.279Z,99651.22
2022-12-08T05:02:00.964Z,99651.91
2022-12-08T05:04:49.571Z,99645.94
2022-12-08T05:07:39.419Z,99641.38
2022-12-08T05:10:27.963Z,99647.19
2022-12-08T05:13:16.413Z,99603.09
2022-12-08T05:16:06.285Z,99630.13
2022-12-08T05:18:54.823Z,99642.13
2022-12-08T05:21:44.072Z,99647.31
2022-12-08T05:24:33.881Z,99650.16
2022-12-08T05:27:22.326Z,99645.75
2022-12-08T05:30:11.559Z,99646.50
2022-12-08T05:32:59.987Z,99638.44
2022-12-08T05:35:48.452Z,99639.88
2022-12-08T05:38:37.204Z,99647.63
2022-12-08T05:41:27.038Z,99611.84
2022-12-08T05:44:15.559Z,99633.59
2022-12-08T05:47:04.205Z,99634.44
2022-12-08T05:49:52.698Z,99515.09
2022-12-08T05:52:41.216Z,99633.00
2022-12-08T05:55:29.716Z,99638.13
2022-12-08T05:58:21.389Z,99587.88
2022-12-08T06:01:19.973Z,99637.13
2022-12-08T06:04:08.410Z,99626.66
2022-12-08T06:06:56.882Z,99638.22
2022-12-08T06:09:45.536Z,99639.84
2022-12-08T06:12:34.030Z,99635.25
2022-12-08T06:15:23.830Z,99627.66
2022-12-08T06:18:12.754Z,99638.25
2022-12-08T06:21:05.330Z,99632.28
2022-12-08T06:23:55.141Z,99635.72
2022-12-08T06:26:43.570Z,99631.25
2022-12-08T06:29:32.001Z,99636.22
2022-12-08T06:32:27.082Z,99637.66
2022-12-08T06:35:16.007Z,99635.56
2022-12-08T06:38:04.513Z,99627.81
2022-12-08T06:40:55.557Z,99636.19
2022-12-08T06:43:44.633Z,99624.31
2022-12-08T06:46:33.170Z,99643.84
2022-12-08T06:49:23.089Z,99635.84
2022-12-08T06:52:11.533Z,99639.31
2022-12-08T06:54:59.995Z,99647.28
2022-12-08T06:57:51.163Z,99640.38
2022-12-08T07:00:42.632Z,99647.13
2022-12-08T07:03:31.102Z,99639.22
2022-12-08T07:06:24.170Z,99638.22
2022-12-08T07:09:12.610Z,99640.94
2022-12-08T07:12:01.100Z,99638.06
2022-12-08T07:14:49.506Z,99633.63
2022-12-08T07:17:37.946Z,99644.03
2022-12-08T07:20:26.429Z,99642.28
2022-12-08T07:23:16.241Z,99649.59
2022-12-08T07:26:07.760Z,99652.81
2022-12-08T07:28:56.201Z,99644.03
2022-12-08T07:31:44.689Z,99642.47
2022-12-08T07:34:33.136Z,99642.34
2022-12-08T07:37:21.602Z,99657.28
2022-12-08T07:40:12.677Z,99649.94
2022-12-08T07:43:01.158Z,99661.31
2022-12-08T07:45:50.382Z,99637.53
2022-12-08T07:48:38.926Z,99652.44
2022-12-08T07:51:27.366Z,99637.13
2022-12-08T07:54:15.879Z,99637.97
2022-12-08T07:57:06.100Z,99630.66
2022-12-08T07:59:54.686Z,99627.22
2022-12-08T08:02:43.444Z,99618.63
2022-12-08T08:05:31.956Z,99629.88
2022-12-08T08:08:20.580Z,99621.63
2022-12-08T08:11:18.964Z,99623.63
2022-12-08T08:14:10.950Z,99630.72
2022-12-08T08:16:59.618Z,99625.94
2022-12-08T08:19:48.238Z,99621.31
2022-12-08T08:22:36.914Z,99616.00
2022-12-08T08:25:25.486Z,99623.47
2022-12-08T08:28:15.136Z,99620.00
2022-12-08T08:31:05.080Z,99567.50
2022-12-08T08:33:53.997Z,99623.47
2022-12-08T08:36:42.553Z,99620.50
2022-12-08T08:39:31.777Z,99620.66
2022-12-08T08:42:20.347Z,99624.31
2022-12-08T08:45:09.487Z,99633.56
2022-12-08T08:47:59.385Z,99623.47
2022-12-08T08:50:47.845Z,99626.47
2022-12-08T08:53:36.704Z,99627.00
2022-12-08T08:56:25.311Z,99630.16
2022-12-08T08:59:13.825Z,99625.03
2022-12-08T09:02:02.385Z,99617.28
2022-12-08T09:04:52.626Z,99618.91
2022-12-08T09:07:41.145Z,99614.13
2022-12-08T09:10:29.660Z,99609.81
2022-12-08T09:13:18.185Z,99605.34
2022-12-08T09:16:09.734Z,99612.81
2022-12-08T09:18:58.305Z,99601.56
2022-12-08T09:21:48.246Z,99612.16
2022-12-08T09:24:36.733Z,99615.31
2022-12-08T09:27:25.295Z,99612.50
2022-12-08T09:30:14.659Z,99608.00
2022-12-08T09:33:03.371Z,99604.53
2022-12-08T09:35:51.852Z,99604.88
2022-12-08T09:38:41.839Z,99606.03
2022-12-08T09:41:37.909Z,99608.00
2022-12-08T09:44:52.336Z,99608.97
2022-12-08T09:47:43.159Z,99604.66
2022-12-08T09:50:33.829Z,99604.31
2022-12-08T09:53:24.879Z,99602.34
2022-12-08T09:56:18.435Z,99588.91
2022-12-08T09:59:13.158Z,99588.06
2022-12-08T10:02:02.349Z,99583.75
2022-12-08T10:04:51.163Z,99576.78
2022-12-08T10:07:44.418Z,99576.44
2022-12-08T10:10:39.680Z,99569.78
2022-12-08T10:13:34.719Z,99567.31
2022-12-08T10:16:30.001Z,99519.50
2022-12-08T10:19:21.696Z,99565.38
2022-12-08T10:22:16.977Z,99551.03
2022-12-08T10:25:10.902Z,99534.47
2022-12-08T10:27:59.741Z,99561.31
2022-12-08T10:30:49.561Z,99559.63
2022-12-08T10:33:37.986Z,99556.81
2022-12-08T10:36:45.706Z,99553.19
2022-12-08T10:39:37.158Z,99548.03
2022-12-08T10:42:25.816Z,99542.50
2022-12-08T10:45:23.997Z,99545.16
2022-12-08T10:48:18.458Z,99532.91
2022-12-08T10:51:26.598Z,99534.19
2022-12-08T10:54:28.059Z,99521.81
2022-12-08T10:57:22.095Z,99541.81
2022-12-08T11:00:15.204Z,99527.34
2022-12-08T11:03:05.522Z,99520.28
2022-12-08T11:06:00.752Z,99521.56
2022-12-08T11:08:54.560Z,99516.91
2022-12-08T11:11:46.348Z,99515.63
2022-12-08T11:14:47.138Z,99515.09
2022-12-08T11:17:39.209Z,99488.38
2022-12-08T11:20:27.716Z,99504.72
2022-12-08T11:23:23.249Z,99499.13
2022-12-08T11:26:19.417Z,99498.03
2022-12-08T11:29:10.006Z,99491.56
2022-12-08T11:32:00.955Z,99497.31
2022-12-08T11:34:52.798Z,99487.72
2022-12-08T11:37:42.924Z,99487.38
2022-12-08T11:40:36.771Z,99493.78
2022-12-08T11:43:30.627Z,99486.47
2022-12-08T11:46:22.205Z,99473.75
2022-12-08T11:49:11.825Z,99483.75
2022-12-08T11:52:05.286Z,99484.75
2022-12-08T11:54:58.437Z,99482.47
2022-12-08T11:57:48.982Z,99478.91
2022-12-08T12:00:37.531Z,99469.34
2022-12-08T12:03:29.738Z,99466.69
2022-12-08T12:06:53.261Z,99465.94
2022-12-08T12:09:48.245Z,99458.94
2022-12-08T12:12:50.640Z,99452.66
2022-12-08T12:15:59.689Z,99460.53
2022-12-08T12:18:50.924Z,99452.28
2022-12-08T12:21:41.855Z,99443.31
2022-12-08T12:24:35.992Z,99450.00
2022-12-08T12:27:29.096Z,99452.66
2022-12-08T12:30:23.512Z,99446.06
2022-12-08T12:33:15.479Z,99452.00
2022-12-08T12:36:06.574Z,99414.63
2022-12-08T12:39:03.976Z,99453.41
2022-12-08T12:41:56.130Z,99448.72
2022-12-08T12:44:44.650Z,99434.81
2022-12-08T12:47:54.300Z,99444.22
2022-12-08T12:50:46.301Z,99441.31
2022-12-08T12:53:52.110Z,99439.63
2022-12-08T12:56:52.291Z,99437.28
2022-12-08T12:59:53.274Z,99431.50
2022-12-08T13:02:48.653Z,99432.69
2022-12-08T13:05:49.204Z,99432.13
2022-12-08T13:08:37.713Z,99434.50
2022-12-08T13:11:26.672Z,99439.28
2022-12-08T13:14:28.536Z,99431.97
2022-12-08T13:17:24.171Z,99432.25
2022-12-08T13:20:20.654Z,99429.94
2022-12-08T13:23:26.025Z,99413.44
2022-12-08T13:26:17.999Z,99434.31
2022-12-08T13:29:16.039Z,99422.91
2022-12-08T13:32:05.275Z,99422.91
2022-12-08T13:34:56.520Z,99415.66
2022-12-08T13:37:54.798Z,99426.53
2022-12-08T13:40:44.464Z,99418.56
2022-12-08T13:43:51.109Z,99415.47
2022-12-08T13:47:17.243Z,99418.97
2022-12-08T13:57:00.848Z,99411.38
2022-12-08T13:59:35.188Z,99409.16
2022-12-08T14:02:29.757Z,99421.88
2022-12-08T14:05:29.762Z,99426.00
2022-12-08T14:08:59.974Z,99420.50
2022-12-08T14:11:44.363Z,99419.88
2022-12-08T14:17:52.190Z,99418.22
2022-12-08T14:21:12.150Z,99416.94
2022-12-08T14:23:50.536Z,99417.59
2022-12-08T14:26:39.230Z,99407.34
2022-12-08T14:29:37.785Z,99412.47
2022-12-08T14:32:29.083Z,99403.00
2022-12-08T14:35:21.991Z,99412.00
2022-12-08T14:38:14.551Z,99411.34
2022-12-08T14:41:06.258Z,99412.53
2022-12-08T14:44:02.799Z,99413.56
2022-12-08T14:47:05.933Z,99419.66
2022-12-08T14:49:54.713Z,99402.75
2022-12-08T14:52:44.162Z,99421.03
2022-12-08T14:55:35.795Z,99412.16
2022-12-08T14:58:29.404Z,99414.47
2022-12-08T15:01:22.458Z,99413.72
2022-12-08T15:04:16.741Z,99417.13
2022-12-08T15:07:08.552Z,99418.31
2022-12-08T15:10:21.471Z,99424.44
2022-12-08T15:13:23.037Z,99417.47
2022-12-08T15:16:26.667Z,99409.88
2022-12-08T15:19:24.194Z,99405.28
2022-12-08T15:22:16.498Z,99416.19
2022-12-08T15:25:06.425Z,99353.38
2022-12-08T15:27:56.401Z,99411.25
2022-12-08T15:30:44.967Z,99400.34
2022-12-08T15:33:34.764Z,99413.25
2022-12-08T15:36:23.433Z,99387.53
2022-12-08T15:39:22.024Z,99407.50
2022-12-08T15:42:13.106Z,99401.25
2022-12-08T15:45:01.604Z,99404.72
2022-12-08T15:47:50.115Z,99405.75
2022-12-08T15:50:39.899Z,99395.66
2022-12-08T15:53:28.387Z,99403.44
2022-12-08T15:56:27.526Z,99385.13
2022-12-08T15:59:18.650Z,99394.53
2022-12-08T16:02:07.312Z,99400.06
2022-12-08T16:08:30.125Z,99391.81
2022-12-08T16:12:04.703Z,99391.97
2022-12-08T16:17:50.170Z,99385.75
2022-12-08T16:21:05.958Z,99388.09
2022-12-08T16:23:48.440Z,99390.31
2022-12-08T16:27:50.729Z,99369.69
2022-12-08T16:29:48.146Z,99372.91
2022-12-08T16:32:36.684Z,99372.63
2022-12-08T16:35:25.286Z,99370.78
2022-12-08T16:38:15.680Z,99375.28
2022-12-08T16:41:23.120Z,99360.34
2022-12-08T16:44:11.655Z,99354.78
2022-12-08T16:47:00.182Z,99358.88
2022-12-08T16:49:48.704Z,99350.53
2022-12-08T16:52:37.269Z,99365.56
2022-12-08T16:55:25.820Z,99357.13
2022-12-08T16:58:15.923Z,99358.31
2022-12-08T17:01:04.693Z,99342.53
2022-12-08T17:04:14.761Z,99330.66
2022-12-08T17:07:01.804Z,99355.53
2022-12-08T17:09:50.374Z,99338.53
2022-12-08T17:12:39.202Z,99350.78
2022-12-08T17:15:29.382Z,99361.72
2022-12-08T17:18:17.930Z,99348.19
2022-12-08T17:21:10.758Z,99346.56
2022-12-08T17:23:59.257Z,99345.06
2022-12-08T17:26:47.830Z,99343.44
2022-12-08T17:29:36.305Z,99347.72
2022-12-08T17:32:26.849Z,99355.84
2022-12-08T17:35:16.177Z,99343.78
2022-12-08T17:38:04.693Z,99343.78
2022-12-08T17:40:58.442Z,99348.44
2022-12-08T17:43:47.199Z,99344.13
2022-12-08T17:46:41.338Z,99266.09
2022-12-08T17:49:32.900Z,99329.09
2022-12-08T17:52:21.373Z,99343.13
2022-12-08T17:55:11.020Z,99344.31
2022-12-08T17:57:59.565Z,99344.13
2022-12-08T18:00:48.243Z,99336.88
2022-12-08T18:03:36.820Z,99340.53
2022-12-08T18:06:30.939Z,99347.84
2022-12-08T18:09:19.904Z,99349.03
2022-12-08T18:12:08.868Z,99348.72
2022-12-08T18:14:57.457Z,99349.56
2022-12-08T18:17:46.132Z,99335.38
2022-12-08T18:20:34.941Z,99344.91
2022-12-08T18:23:24.727Z,99361.97
2022-12-08T18:26:15.652Z,99345.97
2022-12-08T18:29:04.723Z,99352.44
2022-12-08T18:31:53.245Z,99347.78
2022-12-08T18:34:41.722Z,99319.25
2022-12-08T18:37:30.306Z,99349.47
2022-12-08T18:40:20.552Z,99346.84
2022-12-08T18:43:09.440Z,99348.66
2022-12-08T18:46:02.579Z,99344.34
2022-12-08T18:48:52.539Z,99327.81
2022-12-08T18:51:40.998Z,99341.53
2022-12-08T18:54:50.087Z,99338.22
2022-12-08T18:57:42.414Z,99335.91
2022-12-08T19:00:31.577Z,99335.63
2022-12-08T19:03:21.095Z,99332.84
2022-12-08T19:06:09.724Z,99317.81
2022-12-08T19:08:58.527Z,99331.56
2022-12-08T19:11:47.194Z,99329.75
2022-12-08T19:14:37.206Z,99328.91
2022-12-08T19:17:26.585Z,99329.75
2022-12-08T19:20:15.535Z,99311.75
2022-12-08T19:23:04.318Z,99324.28
2022-12-08T19:25:52.789Z,99330.38
2022-12-08T19:28:41.558Z,99329.41
2022-12-08T19:31:31.475Z,99326.75
2022-12-08T19:34:20.274Z,99311.06
2022-12-08T19:37:12.450Z,99322.50
2022-12-08T19:40:18.587Z,99327.69
2022-12-08T19:43:24.795Z,99322.56
2022-12-08T19:46:13.483Z,99324.72
2022-12-08T19:49:03.598Z,99295.88
2022-12-08T19:51:52.146Z,99305.78
2022-12-08T19:54:40.709Z,99314.84
2022-12-08T19:57:29.171Z,99311.91
2022-12-08T20:00:19.161Z,99310.41
2022-12-08T20:03:07.901Z,99293.63
2022-12-08T20:05:57.828Z,99315.44
2022-12-08T20:08:50.588Z,99293.38
2022-12-08T20:11:39.843Z,99306.88
2022-12-08T20:14:28.395Z,99268.41
2022-12-08T20:17:16.936Z,99302.56
2022-12-08T20:20:07.774Z,99307.50
2022-12-08T20:22:57.908Z,99297.56
2022-12-08T20:25:47.794Z,99300.66
2022-12-08T20:28:36.980Z,99308.69
2022-12-08T20:31:27.140Z,99304.22
2022-12-08T20:34:16.596Z,99300.25
2022-12-08T20:37:05.143Z,99272.75
2022-12-08T20:39:55.118Z,99309.19
2022-12-08T20:42:43.674Z,99310.88
2022-12-08T20:45:32.255Z,99306.28
2022-12-08T20:48:20.822Z,99307.25
2022-12-08T20:51:09.767Z,99299.44
2022-12-08T20:53:58.659Z,99311.34
2022-12-08T20:56:49.019Z,99292.22
2022-12-08T20:59:37.582Z,99295.34
2022-12-08T21:02:26.134Z,99306.44
2022-12-08T21:05:14.754Z,99302.00
2022-12-08T21:08:03.797Z,99308.25
2022-12-08T21:10:56.065Z,99310.38
2022-12-08T21:13:46.878Z,99302.81
2022-12-08T21:16:35.616Z,99310.41
2022-12-08T21:19:24.940Z,99300.16
2022-12-08T21:22:14.081Z,99302.97
2022-12-08T21:25:02.699Z,99301.91
2022-12-08T21:27:51.329Z,99295.44
2022-12-08T21:30:42.083Z,99291.16
2022-12-08T21:33:30.702Z,99302.56
2022-12-08T21:36:21.759Z,99257.00
2022-12-08T21:39:12.847Z,99304.72
2022-12-08T21:42:22.559Z,99301.75
2022-12-08T21:45:12.237Z,99300.09
2022-12-08T21:48:10.275Z,99303.09
2022-12-08T21:51:04.814Z,99291.72
2022-12-08T21:53:53.477Z,99303.09
2022-12-08T21:56:42.193Z,99308.38
2022-12-08T21:59:30.944Z,99307.41
2022-12-08T22:02:22.385Z,99307.03
2022-12-08T22:05:13.076Z,99312.53
2022-12-08T22:08:01.822Z,99310.44
2022-12-08T22:10:50.595Z,99315.09
2022-12-08T22:13:41.263Z,99309.47
2022-12-08T22:16:29.942Z,99311.16
2022-12-08T22:19:18.683Z,99316.44
2022-12-08T22:22:08.736Z,99310.81
2022-12-08T22:24:57.269Z,99310.47
2022-12-08T22:27:45.705Z,99311.47
2022-12-08T22:30:39.233Z,99312.31
2022-12-08T22:33:29.760Z,99284.72
2022-12-08T22:36:20.300Z,99279.63
2022-12-08T22:39:10.484Z,99169.72
2022-12-08T22:41:59.172Z,99275.00
2022-12-08T22:44:47.682Z,99303.41
2022-12-08T22:47:36.356Z,99292.16
2022-12-08T22:50:24.941Z,99292.16
2022-12-08T22:53:15.408Z,99296.94
2022-12-08T22:56:06.444Z,99297.28
2022-12-08T22:58:55.027Z,99287.03
2022-12-08T23:01:43.717Z,99289.34
2022-12-08T23:04:32.339Z,99290.50
2022-12-08T23:07:20.875Z,99265.94
2022-12-08T23:10:11.050Z,99260.63
2022-12-08T23:13:03.887Z,99282.09
2022-12-08T23:15:52.715Z,99274.00
2022-12-08T23:18:43.065Z,99271.53
2022-12-08T23:21:31.767Z,99257.00
2022-12-08T23:24:20.299Z,99265.75
2022-12-08T23:27:08.862Z,99039.81
2022-12-08T23:29:58.760Z,99252.53
2022-12-08T23:32:47.329Z,99242.09
2022-12-08T23:35:35.878Z,99242.44
2022-12-08T23:38:24.869Z,99242.91
2022-12-08T23:41:14.889Z,99225.72
2022-12-08T23:44:03.362Z,99181.19
2022-12-08T23:46:53.289Z,99225.94
2022-12-08T23:49:41.844Z,99226.44
2022-12-08T23:52:30.419Z,99216.66
2022-12-08T23:55:18.893Z,99205.47
2022-12-08T23:58:07.421Z,99211.06
